nws-alerts: Checking more than four warning/county codes can delay the loading of your pages. You should use a cron job to get the data.

Nearby METAR Weather Reports

 

KETB - West Bend, WI
Distance from station: E 4mi, 6km
Updated: 09/21/2020 10:35am
Clear
Clear
 Wind from SSW
Wind: SSW 8 mph , 13 km/h
Temperature: 63°F , 17°C
Dew Point: 41°F , 5°C
Humidity: 45%
Barometer: 30.37 inHg , 1028.4 hPa
Clouds: Clear
Visibility: 10 miles , 16 km
2020/09/21 15:35 KETB 211535Z AUTO 21007KT 10SM CLR 17/05 A3037 RMK AO2
KFLD - Fond Du Lac, WI
Distance from station: W 34mi, 54km
Updated: 09/21/2020 9:53am
Clear
Clear
 Wind from SSW
Wind: SSW 12 mph , 19 km/h, Gust: 22 mph , 35 km/h
Temperature: 64°F , 18°C
Dew Point: 41°F , 5°C
Humidity: 43%
Barometer: 30.35 inHg , 1027.8 hPa
Clouds: Clear
Visibility: 10 miles , 16 km
2020/09/21 14:53 KFLD 211453Z AUTO 21010G19KT 10SM CLR 18/05 A3035 RMK AO2 SLP278 T01830050 50001
 
KSBM - Sheboygan, WI
Distance from station: NE 36mi, 57km
Updated: 09/21/2020 9:53am
Clear
Clear
 Wind from S
Wind: S 5 mph , 7 km/h
Temperature: 64°F , 18°C
Dew Point: 48°F , 9°C
Humidity: 56%
Barometer: 30.37 inHg , 1028.4 hPa
Clouds: Clear
Visibility: 10 miles , 16 km
2020/09/21 14:53 KSBM 211453Z AUTO 18004KT 10SM CLR 18/09 A3037 RMK AO2 SLP286 T01780089 51004
KMKE - Milwaukee, WI
Distance from station: S 44mi, 70km
Updated: 09/21/2020 9:52am
Partly cloudy
Partly cloudy
 Wind from SSW
Wind: SSW 12 mph , 19 km/h
Temperature: 63°F , 17°C
Dew Point: 45°F , 7°C
Humidity: 52%
Barometer: 30.39 inHg , 1029.1 hPa
Clouds: Partly cloudy
Visibility: 10 miles , 16 km
Cloud details: Partly cloudy 25000 ft
2020/09/21 14:52 KMKE 211452Z 20010KT 10SM SCT250 17/07 A3039 RMK AO2 SLP292 FU SCT250 T01670067 53004
 
KOSH - Oshkosh, WI
Distance from station: WNW 52mi, 83km
Updated: 09/21/2020 9:53am
Clear
Clear
 Wind from S
Wind: S 10 mph , 17 km/h
Temperature: 61°F , 16°C
Dew Point: 43°F , 6°C
Humidity: 52%
Barometer: 30.34 inHg , 1027.4 hPa
Clouds: Clear
Visibility: 10 miles , 16 km
2020/09/21 14:53 KOSH 211453Z 19009KT 10SM CLR 16/06 A3034 RMK AO2 SLP273 T01610061 51003
KENW - Kenosha, WI
Distance from station: SSE 69mi, 111km
Updated: 09/21/2020 9:53am
Clear
Clear
 Wind from SSW
Wind: SSW 12 mph , 19 km/h
Temperature: 64°F , 18°C
Dew Point: 46°F , 8°C
Humidity: 52%
Barometer: 30.40 inHg , 1029.5 hPa
Clouds: Clear
Visibility: 10 miles , 16 km
2020/09/21 14:53 KENW 211453Z 21010KT 10SM CLR 18/08 A3040 RMK AO2 SLP294 T01830078 53001
 
KMSN - Madison, WI
Distance from station: SW 69mi, 111km
Updated: 09/21/2020 9:53am
Clear
Clear
 Wind from S
Wind: S 10 mph , 17 km/h
Temperature: 59°F , 15°C
Dew Point: 45°F , 7°C
Humidity: 59%
Barometer: 30.35 inHg , 1027.8 hPa
Clouds: Clear
Visibility: 10 miles , 16 km
2020/09/21 14:53 KMSN 211453Z 19009KT 10SM CLR 15/07 A3035 RMK AO2 SLP278 T01500067 51001 $
KSAW - Marquette, MI
Distance from station: N 262mi, 421km
Updated: 09/21/2020 9:47am
Clear
Clear
 Wind from SSW
Wind: SSW 22 mph , 35 km/h, Gust: 28 mph , 44 km/h
Temperature: 57°F , 14°C
Dew Point: 46°F , 8°C
Humidity: 67%
Barometer: 30.26 inHg , 1024.7 hPa
Clouds: Clear
Visibility: 10 miles , 16 km
2020/09/21 14:47 KSAW 211447Z 20019G24KT 10SM SKC 14/08 A3026
 
KIMT - Iron Mountain, MI
Distance from station: NNW 201mi, 323km
Updated: 09/21/2020 9:54am
Clear
Clear
 Wind from SSE
Wind: SSE 9 mph , 15 km/h
Temperature: 57°F , 14°C
Dew Point: 45°F , 7°C
Humidity: 63%
Barometer: 30.28 inHg , 1025.4 hPa
Clouds: Clear
Visibility: 10 miles , 16 km
2020/09/21 14:54 KIMT 211454Z AUTO 16008KT 10SM CLR 14/07 A3028 RMK AO2 SLP257 T01390067 58007
KGRB - Green Bay, WI
Distance from station: NNW 87mi, 140km
Updated: 09/21/2020 9:53am
Clear
Clear
 Wind from S
Wind: S 10 mph , 17 km/h, Gust: 20 mph , 31 km/h
Temperature: 63°F , 17°C
Dew Point: 45°F , 7°C
Humidity: 52%
Barometer: 30.34 inHg , 1027.4 hPa
Clouds: Clear
Visibility: 10 miles , 16 km
2020/09/21 14:53 KGRB 211453Z 19009G17KT 10SM CLR 17/07 A3034 RMK AO2 SLP276 T01670067 50000
 
KAUW - Wausau, WI
Distance from station: NW 155mi, 249km
Updated: 09/21/2020 9:54am
Clear
Clear
 Wind from SSW
Wind: SSW 12 mph , 19 km/h
Temperature: 57°F , 14°C
Dew Point: 43°F , 6°C
Humidity: 59%
Barometer: 30.27 inHg , 1025.1 hPa
Clouds: Clear
Visibility: 10 miles , 16 km
2020/09/21 14:54 KAUW 211454Z AUTO 20010KT 10SM CLR 14/06 A3027 RMK AO2 SLP257 T01440056 55002
KORD - Chicago O'Hare, IL
Distance from station: S 113mi, 181km
Updated: 09/21/2020 9:51am
Partly cloudy
Partly cloudy
 Wind from S
Wind: S 10 mph , 17 km/h
Temperature: 63°F , 17°C
Dew Point: 43°F , 6°C
Humidity: 49%
Barometer: 30.40 inHg , 1029.5 hPa
Clouds: Partly cloudy
Visibility: 10 miles , 16 km
Cloud details: Partly cloudy 25000 ft
2020/09/21 14:51 KORD 211451Z 19009KT 10SM SCT250 17/06 A3040 RMK AO2 SLP295 FU SCT250 T01670061 51001
 
KVOK - WIANG Volk Field, Camp Douglas, WI
Distance from station: WNW 120mi, 193km
Updated: 09/21/2020 9:56am
Mostly cloudy
Mostly cloudy
 Wind from SSE
Wind: SSE 12 mph , 19 km/h
Temperature: 61°F , 16°C
Dew Point: 46°F , 8°C
Humidity: 59%
Barometer: 30.29 inHg , 1025.7 hPa
Clouds: Mostly cloudy
Visibility: 10 miles , 16 km
Cloud details: Partly cloudy 15000 ft
Mostly cloudy 20000 ft
2020/09/21 14:56 KVOK 211456Z 16010KT 10SM SCT150 BKN200 16/08 A3029 RMK AO2A SLP262 50000
KLNR - Lone Rock, WI
Distance from station: W 114mi, 183km
Updated: 09/21/2020 9:56am
Clear
Clear
 Wind from calm
Wind: Calm
Temperature: 59°F , 15°C
Dew Point: 45°F , 7°C
Humidity: 59%
Barometer: 30.33 inHg , 1027.1 hPa
Clouds: Clear
Visibility: 10 miles , 16 km
2020/09/21 14:56 KLNR 211456Z AUTO 00000KT 10SM CLR 15/07 A3033 RMK AO2 SLP268 T01500072 50002